createdAt,value
2024-03-24T00:00:34.349Z,4.20
2024-03-24T00:03:21.032Z,4.20
2024-03-24T00:05:48.189Z,3.80
2024-03-24T00:08:15.131Z,5.30
2024-03-24T00:10:41.917Z,5.10
2024-03-24T00:13:08.853Z,4.80
2024-03-24T00:15:35.700Z,4.70
2024-03-24T00:18:02.906Z,4.00
2024-03-24T00:20:29.992Z,4.40
2024-03-24T00:22:56.833Z,3.50
2024-03-24T00:25:23.751Z,3.80
2024-03-24T00:27:50.471Z,4.00
2024-03-24T00:30:17.318Z,4.70
2024-03-24T00:32:44.063Z,4.20
2024-03-24T00:35:11.255Z,4.30
2024-03-24T00:37:38.157Z,4.10
2024-03-24T00:40:10.103Z,3.80
2024-03-24T00:42:36.917Z,3.90
2024-03-24T00:45:05.795Z,3.90
2024-03-24T00:47:32.676Z,3.20
2024-03-24T00:49:59.657Z,4.30
2024-03-24T00:52:26.483Z,4.90
2024-03-24T00:54:53.440Z,4.30
2024-03-24T00:57:20.187Z,4.60
2024-03-24T00:59:48.038Z,5.00
2024-03-24T01:02:14.770Z,4.60
2024-03-24T01:04:41.619Z,4.50
2024-03-24T01:07:08.555Z,5.40
2024-03-24T01:09:35.725Z,4.40
2024-03-24T01:12:03.059Z,4.70
2024-03-24T01:14:30.113Z,4.00
2024-03-24T01:16:56.864Z,4.60
2024-03-24T01:19:23.725Z,4.70
2024-03-24T01:21:50.459Z,4.80
2024-03-24T01:24:17.300Z,4.40
2024-03-24T01:26:44.038Z,5.10
2024-03-24T01:29:12.801Z,5.20
2024-03-24T01:31:39.843Z,5.20
2024-03-24T01:34:07.024Z,5.20
2024-03-24T01:36:34.255Z,5.20
2024-03-24T01:39:01.963Z,5.00
2024-03-24T01:41:29.118Z,4.10
2024-03-24T01:43:56.232Z,4.80
2024-03-24T01:46:24.189Z,4.50
2024-03-24T01:48:51.085Z,3.90
2024-03-24T01:51:22.690Z,6.00
2024-03-24T01:53:51.482Z,4.00
2024-03-24T01:56:18.339Z,5.10
2024-03-24T01:58:45.155Z,5.20
2024-03-24T02:01:13.169Z,4.90
2024-03-24T02:03:40.264Z,5.80
2024-03-24T02:06:07.085Z,5.50
2024-03-24T02:08:34.119Z,5.00
2024-03-24T02:11:01.195Z,6.20
2024-03-24T02:13:28.161Z,5.80
2024-03-24T02:15:55.546Z,6.90
2024-03-24T02:18:25.704Z,7.00
2024-03-24T02:20:52.511Z,6.10
2024-03-24T02:23:19.302Z,7.60
2024-03-24T02:25:46.075Z,10.80
2024-03-24T02:28:13.355Z,10.00
2024-03-24T02:30:40.465Z,9.90
2024-03-24T02:33:07.662Z,9.30
2024-03-24T02:35:34.796Z,9.80
2024-03-24T02:38:01.844Z,7.80
2024-03-24T02:40:29.236Z,6.20
2024-03-24T02:42:56.523Z,7.60
2024-03-24T02:45:23.494Z,7.60
2024-03-24T02:47:50.277Z,7.60
2024-03-24T02:50:17.108Z,7.90
2024-03-24T02:52:47.197Z,8.80
2024-03-24T02:55:14.280Z,7.30
2024-03-24T02:57:41.445Z,7.80
2024-03-24T03:00:11.994Z,7.20
2024-03-24T03:02:38.775Z,6.20
2024-03-24T03:05:06.828Z,6.50
2024-03-24T03:07:33.750Z,6.20
2024-03-24T03:10:00.870Z,8.20
2024-03-24T03:12:27.611Z,8.80
2024-03-24T03:14:54.335Z,6.90
2024-03-24T03:17:21.562Z,7.00
2024-03-24T03:19:49.290Z,7.40
2024-03-24T03:22:16.036Z,9.00
2024-03-24T03:24:42.844Z,10.30
2024-03-24T03:27:11.668Z,10.10
2024-03-24T03:29:38.693Z,9.80
2024-03-24T03:32:05.936Z,7.30
2024-03-24T03:34:33.279Z,8.40
2024-03-24T03:37:00.897Z,7.50
2024-03-24T03:39:27.690Z,7.00
2024-03-24T03:41:54.454Z,8.40
2024-03-24T03:44:21.267Z,6.10
2024-03-24T03:46:48.291Z,7.70
2024-03-24T03:49:16.786Z,7.20
2024-03-24T03:51:46.573Z,6.80
2024-03-24T03:54:15.293Z,6.30
2024-03-24T03:56:42.186Z,6.90
2024-03-24T03:59:09.667Z,6.20
2024-03-24T04:01:36.492Z,6.90
2024-03-24T04:04:04.584Z,8.40
2024-03-24T04:06:31.680Z,6.40
2024-03-24T04:09:02.962Z,7.00
2024-03-24T04:11:30.265Z,6.40
2024-03-24T04:13:57.195Z,6.50
2024-03-24T04:16:24.119Z,8.20
2024-03-24T04:18:51.122Z,8.90
2024-03-24T04:21:17.992Z,9.20
2024-03-24T04:23:44.921Z,8.90
2024-03-24T04:26:11.629Z,7.30
2024-03-24T04:28:38.398Z,7.40
2024-03-24T04:31:05.344Z,7.00
2024-03-24T04:33:32.301Z,8.90
2024-03-24T04:35:59.336Z,7.60
2024-03-24T04:38:26.047Z,7.80
2024-03-24T04:40:53.200Z,8.60
2024-03-24T04:43:20.795Z,8.80
2024-03-24T04:45:47.743Z,9.80
2024-03-24T04:48:14.745Z,8.40
2024-03-24T04:50:43.501Z,7.20
2024-03-24T04:53:10.378Z,8.80
2024-03-24T04:55:37.429Z,11.80
2024-03-24T04:58:04.312Z,13.60
2024-03-24T05:00:32.352Z,12.50
2024-03-24T05:03:02.978Z,7.80
2024-03-24T05:05:31.294Z,11.40
2024-03-24T05:07:59.364Z,9.30
2024-03-24T05:10:26.620Z,10.10
2024-03-24T05:12:54.450Z,11.10
2024-03-24T05:15:21.425Z,8.00
2024-03-24T05:17:48.332Z,9.80
2024-03-24T05:20:15.196Z,7.90
2024-03-24T05:22:43.338Z,9.30
2024-03-24T05:25:10.835Z,9.00
2024-03-24T05:27:37.579Z,7.70
2024-03-24T05:30:05.436Z,7.30
2024-03-24T05:32:34.479Z,7.70
2024-03-24T05:35:01.295Z,8.80
2024-03-24T05:37:29.075Z,10.10
2024-03-24T05:39:55.967Z,13.50
2024-03-24T05:42:22.914Z,14.40
2024-03-24T05:44:49.717Z,9.90
2024-03-24T05:47:16.486Z,9.00
2024-03-24T05:49:43.224Z,16.90
2024-03-24T05:52:10.142Z,20.20
2024-03-24T05:54:37.163Z,26.80
2024-03-24T05:57:04.365Z,16.10
2024-03-24T05:59:31.115Z,14.10
2024-03-24T06:01:57.868Z,13.20
2024-03-24T06:04:25.053Z,14.30
2024-03-24T06:06:51.928Z,10.80
2024-03-24T06:09:19.554Z,11.80
2024-03-24T06:11:46.470Z,19.60
2024-03-24T06:14:13.326Z,17.00
2024-03-24T06:16:40.989Z,20.50
2024-03-24T06:19:14.191Z,19.10
2024-03-24T06:21:44.576Z,16.60
2024-03-24T06:24:11.615Z,14.50
2024-03-24T06:26:40.735Z,12.20
2024-03-24T06:29:07.534Z,9.30
2024-03-24T06:31:34.367Z,11.30
2024-03-24T06:34:03.203Z,10.80
2024-03-24T06:36:30.771Z,11.00
2024-03-24T06:39:01.826Z,11.90
2024-03-24T06:41:32.026Z,10.90
2024-03-24T06:43:59.341Z,12.80
2024-03-24T06:46:30.515Z,12.20
2024-03-24T06:49:14.208Z,11.10
2024-03-24T06:51:41.487Z,10.80
2024-03-24T06:54:08.335Z,10.50
2024-03-24T06:56:35.668Z,11.00
2024-03-24T06:59:02.719Z,10.70
2024-03-24T07:01:29.957Z,11.20
2024-03-24T07:03:56.833Z,11.90
2024-03-24T07:06:23.842Z,12.00
2024-03-24T07:08:51.572Z,12.50
2024-03-24T07:11:18.324Z,11.60
2024-03-24T07:13:45.325Z,11.60
2024-03-24T07:16:12.314Z,11.10
2024-03-24T07:18:39.187Z,11.70
2024-03-24T07:21:07.734Z,11.60
2024-03-24T07:23:34.854Z,10.10
2024-03-24T07:26:02.158Z,9.90
2024-03-24T07:28:29.052Z,10.90
2024-03-24T07:30:55.901Z,11.60
2024-03-24T07:33:22.769Z,10.90
2024-03-24T07:35:49.833Z,11.20
2024-03-24T07:38:16.668Z,12.00
2024-03-24T07:40:44.290Z,12.70
2024-03-24T07:43:12.089Z,15.70
2024-03-24T07:45:38.922Z,12.20
2024-03-24T07:48:07.417Z,11.20
2024-03-24T07:50:34.111Z,10.50
2024-03-24T07:53:00.821Z,9.60
2024-03-24T07:55:27.717Z,9.60
2024-03-24T07:57:54.438Z,9.80
2024-03-24T08:00:21.511Z,10.70
2024-03-24T08:02:50.546Z,9.80
2024-03-24T08:05:17.310Z,9.70
2024-03-24T08:07:44.313Z,9.40
2024-03-24T08:10:14.064Z,9.70
2024-03-24T08:12:41.168Z,9.20
2024-03-24T08:15:08.483Z,9.60
2024-03-24T08:17:35.623Z,8.60
2024-03-24T08:20:03.218Z,9.80
2024-03-24T08:22:30.476Z,8.70
2024-03-24T08:24:59.129Z,8.60
2024-03-24T08:27:26.063Z,9.10
2024-03-24T08:29:52.947Z,7.80
2024-03-24T08:32:20.493Z,8.90
2024-03-24T08:34:48.385Z,8.80
2024-03-24T08:37:15.266Z,8.30
2024-03-24T08:39:42.272Z,8.50
2024-03-24T08:42:09.348Z,7.10
2024-03-24T08:44:36.178Z,9.00
2024-03-24T08:47:03.667Z,6.60
2024-03-24T08:49:33.466Z,7.10
2024-03-24T08:52:02.237Z,7.90
2024-03-24T08:54:29.221Z,8.90
2024-03-24T08:56:56.442Z,7.70
2024-03-24T08:59:23.305Z,7.60
2024-03-24T09:01:50.214Z,7.50
2024-03-24T09:04:17.024Z,8.30
2024-03-24T09:06:44.410Z,6.70
2024-03-24T09:09:11.207Z,6.60
2024-03-24T09:11:38.227Z,6.70
2024-03-24T09:14:05.206Z,6.30
2024-03-24T09:16:34.248Z,5.70
2024-03-24T09:19:03.314Z,5.60
2024-03-24T09:21:30.117Z,5.00
2024-03-24T09:23:57.118Z,4.30
2024-03-24T09:26:25.486Z,4.40
2024-03-24T09:28:52.275Z,4.20
2024-03-24T09:31:19.337Z,4.40
2024-03-24T09:33:46.788Z,5.00
2024-03-24T09:36:15.889Z,5.10
2024-03-24T09:38:42.673Z,5.30
2024-03-24T09:41:09.452Z,4.20
2024-03-24T09:43:36.523Z,4.30
2024-03-24T09:46:03.994Z,3.30
2024-03-24T09:48:33.329Z,4.30
2024-03-24T09:51:04.174Z,4.30
2024-03-24T09:53:33.836Z,4.70
2024-03-24T09:56:03.044Z,4.60
2024-03-24T09:58:30.061Z,3.80
2024-03-24T10:00:57.320Z,4.00
2024-03-24T10:03:26.962Z,3.00
2024-03-24T10:05:59.799Z,5.50
2024-03-24T10:08:34.060Z,5.60
2024-03-24T10:11:31.370Z,5.90
2024-03-24T10:14:02.928Z,5.60
2024-03-24T10:16:30.688Z,7.10
2024-03-24T10:18:58.488Z,7.50
2024-03-24T10:21:25.515Z,6.00
2024-03-24T10:23:52.466Z,5.70
2024-03-24T10:26:20.576Z,5.30
2024-03-24T10:28:48.992Z,4.20
2024-03-24T10:31:16.830Z,4.80
2024-03-24T10:33:47.171Z,5.10
2024-03-24T10:36:14.142Z,4.40
2024-03-24T10:38:42.446Z,5.10
2024-03-24T10:41:09.349Z,4.30
2024-03-24T10:43:36.320Z,5.00
2024-03-24T10:46:04.520Z,4.80
2024-03-24T10:48:35.771Z,5.00
2024-03-24T10:51:09.968Z,3.80
2024-03-24T10:53:36.979Z,4.50
2024-03-24T10:56:04.945Z,5.00
2024-03-24T10:58:34.095Z,4.80
2024-03-24T11:01:01.312Z,4.40
2024-03-24T11:03:29.354Z,5.30
2024-03-24T11:05:57.019Z,5.80
2024-03-24T11:08:24.248Z,5.30
2024-03-24T11:11:01.528Z,5.20
2024-03-24T11:13:30.775Z,6.00
2024-03-24T11:15:57.767Z,4.20
2024-03-24T11:18:26.531Z,5.80
2024-03-24T11:20:55.191Z,4.30
2024-03-24T11:23:24.144Z,5.00
2024-03-24T11:25:52.305Z,4.60
2024-03-24T11:28:42.016Z,5.80
2024-03-24T11:31:20.735Z,4.10
2024-03-24T11:34:03.169Z,4.80
2024-03-24T11:36:33.023Z,2.90
2024-03-24T11:39:01.096Z,3.30
2024-03-24T11:41:29.018Z,2.60
2024-03-24T11:44:03.081Z,2.80
2024-03-24T11:46:31.630Z,2.80
2024-03-24T11:49:04.422Z,2.10
2024-03-24T11:51:31.648Z,2.10
2024-03-24T11:54:00.464Z,2.90
2024-03-24T11:56:27.852Z,2.40
2024-03-24T11:58:56.234Z,2.80
2024-03-24T12:01:25.079Z,2.10
2024-03-24T12:03:52.928Z,3.90
2024-03-24T12:06:20.940Z,2.10
2024-03-24T12:08:50.074Z,2.40
2024-03-24T12:11:18.356Z,2.30
2024-03-24T12:13:45.224Z,2.20
2024-03-24T12:16:16.018Z,1.90
2024-03-24T12:21:11.465Z,2.10
2024-03-24T12:23:38.409Z,1.70
2024-03-24T12:26:05.424Z,2.30
2024-03-24T12:28:33.986Z,1.50
2024-03-24T12:31:01.187Z,3.00
2024-03-24T12:33:28.404Z,1.70
2024-03-24T12:35:56.093Z,1.70
2024-03-24T12:38:23.283Z,1.50
2024-03-24T12:40:55.548Z,2.30
2024-03-24T12:43:29.520Z,2.20
2024-03-24T12:46:03.361Z,1.30
2024-03-24T12:48:30.543Z,1.80
2024-03-24T12:50:58.524Z,1.90
2024-03-24T12:53:40.628Z,1.50
2024-03-24T12:56:08.112Z,2.40
2024-03-24T12:58:39.103Z,1.30
2024-03-24T13:01:09.713Z,1.20
2024-03-24T13:06:06.999Z,1.20
2024-03-24T13:08:35.515Z,1.20
2024-03-24T13:11:11.852Z,1.50
2024-03-24T13:13:43.197Z,1.20
2024-03-24T13:16:16.696Z,1.70
2024-03-24T13:18:58.548Z,1.60
2024-03-24T13:21:54.381Z,1.30
2024-03-24T13:24:25.489Z,1.40
2024-03-24T13:26:57.843Z,1.50
2024-03-24T13:29:25.055Z,1.40
2024-03-24T13:31:52.284Z,0.90
2024-03-24T13:34:19.267Z,1.40
2024-03-24T13:37:04.570Z,1.20
2024-03-24T13:39:38.790Z,1.50
2024-03-24T13:42:19.795Z,0.90
2024-03-24T13:44:55.946Z,1.90
2024-03-24T13:47:33.388Z,1.70
2024-03-24T13:50:01.864Z,1.40
2024-03-24T13:52:33.704Z,1.00
2024-03-24T13:55:04.948Z,1.40
2024-03-24T13:57:34.174Z,1.00
2024-03-24T14:00:01.694Z,1.10
2024-03-24T14:02:28.841Z,0.80
2024-03-24T14:04:56.403Z,0.60
2024-03-24T14:07:23.162Z,0.80
2024-03-24T14:09:52.191Z,1.00
2024-03-24T14:12:31.808Z,0.70
2024-03-24T14:15:13.258Z,0.80
2024-03-24T14:17:49.868Z,1.10
2024-03-24T14:20:30.023Z,0.70
2024-03-24T14:23:11.164Z,1.00
2024-03-24T14:25:42.329Z,1.10
2024-03-24T14:28:09.141Z,0.70
2024-03-24T14:30:35.989Z,1.10
2024-03-24T14:33:03.163Z,0.60
2024-03-24T14:36:14.693Z,0.70
2024-03-24T14:39:33.210Z,0.50
2024-03-24T14:42:19.934Z,0.40
2024-03-24T14:45:26.644Z,0.40
2024-03-24T14:48:04.724Z,0.30
2024-03-24T14:50:32.272Z,0.50
2024-03-24T14:52:59.072Z,0.50
2024-03-24T14:55:25.841Z,0.30
2024-03-24T14:57:52.970Z,0.60
2024-03-24T15:00:21.998Z,0.60
2024-03-24T15:02:53.468Z,1.10
2024-03-24T15:05:20.268Z,1.20
2024-03-24T15:07:47.254Z,0.40
2024-03-24T15:10:14.700Z,0.60
2024-03-24T15:12:41.575Z,0.40
2024-03-24T15:15:09.092Z,0.20
2024-03-24T15:17:38.085Z,0.50
2024-03-24T15:20:08.991Z,0.20
2024-03-24T15:25:10.065Z,0.30
2024-03-24T15:27:37.195Z,0.30
2024-03-24T15:30:08.028Z,0.40
2024-03-24T15:35:03.195Z,0.50
2024-03-24T15:37:31.252Z,0.40
2024-03-24T15:39:58.216Z,0.50
2024-03-24T15:42:25.193Z,0.30
2024-03-24T15:44:51.937Z,0.30
2024-03-24T15:47:19.766Z,1.10
2024-03-24T15:49:48.032Z,0.50
2024-03-24T15:52:14.968Z,0.50
2024-03-24T15:54:44.733Z,0.30
2024-03-24T15:57:37.135Z,0.60
2024-03-24T16:00:17.229Z,0.60
2024-03-24T16:02:45.254Z,0.70
2024-03-24T16:05:12.026Z,0.60
2024-03-24T16:07:44.176Z,8.60
2024-03-24T16:10:23.024Z,15.10
2024-03-24T16:13:03.668Z,28.00
2024-03-24T16:15:30.713Z,14.80
2024-03-24T16:17:58.826Z,6.90
2024-03-24T16:20:25.763Z,12.20
2024-03-24T16:22:53.120Z,6.60
2024-03-24T16:25:20.364Z,21.20
2024-03-24T16:27:47.816Z,8.20
2024-03-24T16:30:14.888Z,3.30
2024-03-24T16:32:42.071Z,2.20
2024-03-24T16:35:09.738Z,0.40
2024-03-24T16:37:36.762Z,0.30
2024-03-24T16:40:05.516Z,0.20
2024-03-24T16:42:32.905Z,0.20
2024-03-24T16:45:01.756Z,0.40
2024-03-24T16:47:28.919Z,0.20
2024-03-24T16:49:57.759Z,0.30
2024-03-24T16:52:25.932Z,0.20
2024-03-24T16:54:52.833Z,0.20
2024-03-24T16:57:19.667Z,0.20
2024-03-24T16:59:46.626Z,0.20
2024-03-24T17:02:13.597Z,0.20
2024-03-24T17:04:40.569Z,0.40
2024-03-24T17:07:07.438Z,0.30
2024-03-24T17:09:34.328Z,0.30
2024-03-24T17:12:01.123Z,0.30
2024-03-24T17:14:28.170Z,0.40
2024-03-24T17:16:54.989Z,0.20
2024-03-24T17:19:23.880Z,0.60
2024-03-24T17:21:52.000Z,0.50
2024-03-24T17:24:22.990Z,0.30
2024-03-24T17:26:50.242Z,0.30
2024-03-24T17:29:17.644Z,0.20
2024-03-24T17:31:44.770Z,0.40
2024-03-24T17:34:11.599Z,0.50
2024-03-24T17:36:38.479Z,0.60
2024-03-24T17:39:05.277Z,0.30
2024-03-24T17:41:32.415Z,0.60
2024-03-24T17:43:59.633Z,0.70
2024-03-24T17:46:26.355Z,0.70
2024-03-24T17:48:53.848Z,1.20
2024-03-24T17:51:21.039Z,0.90
2024-03-24T17:53:47.872Z,0.70
2024-03-24T17:56:16.132Z,0.70
2024-03-24T17:58:44.369Z,0.70
2024-03-24T18:01:12.688Z,0.80
2024-03-24T18:03:39.476Z,1.00
2024-03-24T18:06:06.391Z,1.20
2024-03-24T18:08:52.015Z,1.70
2024-03-24T18:11:18.696Z,2.40
2024-03-24T18:13:45.471Z,3.80
2024-03-24T18:16:12.200Z,5.30
2024-03-24T18:18:39.209Z,4.50
2024-03-24T18:21:06.571Z,4.20
2024-03-24T18:23:34.888Z,3.30
2024-03-24T18:26:02.297Z,2.70
2024-03-24T18:28:29.360Z,2.10
2024-03-24T18:30:56.601Z,2.50
2024-03-24T18:33:23.433Z,1.50
2024-03-24T18:35:50.710Z,1.20
2024-03-24T18:38:17.847Z,1.40
2024-03-24T18:40:45.001Z,1.30
2024-03-24T18:43:12.318Z,2.60
2024-03-24T18:45:39.803Z,2.40
2024-03-24T18:48:07.008Z,2.80
2024-03-24T18:50:33.951Z,2.90
2024-03-24T18:53:02.897Z,2.50
2024-03-24T18:55:29.704Z,2.10
2024-03-24T18:57:57.501Z,1.70
2024-03-24T19:00:24.617Z,2.30
2024-03-24T19:02:51.378Z,1.20
2024-03-24T19:05:19.064Z,1.50
2024-03-24T19:07:45.932Z,1.30
2024-03-24T19:10:13.842Z,2.60
2024-03-24T19:12:41.942Z,2.50
2024-03-24T19:15:17.483Z,2.80
2024-03-24T19:17:44.219Z,1.80
2024-03-24T19:20:14.686Z,1.40
2024-03-24T19:22:41.551Z,2.90
2024-03-24T19:25:12.409Z,1.70
2024-03-24T19:27:40.673Z,1.20
2024-03-24T19:30:09.491Z,1.60
2024-03-24T19:32:36.476Z,1.30
2024-03-24T19:35:04.513Z,0.80
2024-03-24T19:37:31.336Z,0.60
2024-03-24T19:39:58.395Z,1.30
2024-03-24T19:42:31.612Z,0.60
2024-03-24T19:45:00.001Z,1.50
2024-03-24T19:47:33.275Z,1.10
2024-03-24T19:50:02.038Z,1.00
2024-03-24T19:52:29.013Z,0.80
2024-03-24T19:54:56.557Z,0.70
2024-03-24T19:57:23.567Z,0.80
2024-03-24T19:59:50.865Z,1.70
2024-03-24T20:02:18.096Z,1.70
2024-03-24T20:04:45.056Z,1.50
2024-03-24T20:07:12.058Z,1.50
2024-03-24T20:09:38.762Z,1.60
2024-03-24T20:12:06.389Z,1.20
2024-03-24T20:14:33.241Z,0.50
2024-03-24T20:17:00.176Z,1.60
2024-03-24T20:19:27.112Z,2.00
2024-03-24T20:21:53.958Z,2.40
2024-03-24T20:24:21.300Z,3.30
2024-03-24T20:26:48.135Z,4.10
2024-03-24T20:29:18.689Z,3.40
2024-03-24T20:31:45.896Z,3.70
2024-03-24T20:34:12.792Z,4.20
2024-03-24T20:36:39.809Z,2.60
2024-03-24T20:39:08.814Z,1.30
2024-03-24T20:41:36.746Z,2.30
2024-03-24T20:44:04.315Z,2.00
2024-03-24T20:46:31.652Z,1.80
2024-03-24T20:48:58.663Z,2.00
2024-03-24T20:51:25.707Z,2.50
2024-03-24T20:53:52.450Z,2.90
2024-03-24T20:56:19.681Z,3.60
2024-03-24T20:58:47.347Z,2.40
2024-03-24T21:01:14.371Z,2.40
2024-03-24T21:03:41.560Z,2.50
2024-03-24T21:06:08.317Z,1.50
2024-03-24T21:08:35.400Z,1.10
2024-03-24T21:11:02.406Z,0.80
2024-03-24T21:13:29.228Z,1.00
2024-03-24T21:15:56.124Z,0.80
2024-03-24T21:18:23.145Z,0.80
2024-03-24T21:20:51.722Z,0.80
2024-03-24T21:23:18.765Z,0.70
2024-03-24T21:25:45.878Z,1.10
2024-03-24T21:28:15.427Z,1.30
2024-03-24T21:30:42.770Z,0.80
2024-03-24T21:33:09.665Z,1.20
2024-03-24T21:35:36.628Z,0.50
2024-03-24T21:38:22.228Z,0.50
2024-03-24T21:41:08.052Z,0.80
2024-03-24T21:43:35.035Z,0.90
2024-03-24T21:46:02.073Z,0.90
2024-03-24T21:48:29.071Z,0.80
2024-03-24T21:50:56.167Z,1.00
2024-03-24T21:53:23.033Z,1.20
2024-03-24T21:55:50.104Z,1.30
2024-03-24T21:58:20.825Z,1.20
2024-03-24T22:00:47.776Z,1.10
2024-03-24T22:03:14.827Z,1.40
2024-03-24T22:05:53.382Z,1.50
2024-03-24T22:08:29.597Z,1.20
2024-03-24T22:11:05.848Z,1.30
2024-03-24T22:13:33.024Z,1.60
2024-03-24T22:15:59.945Z,1.40
2024-03-24T22:18:27.431Z,0.90
2024-03-24T22:20:54.153Z,0.80
2024-03-24T22:23:20.991Z,0.90
2024-03-24T22:25:50.363Z,1.10
2024-03-24T22:28:17.537Z,1.60
2024-03-24T22:30:44.576Z,1.70
2024-03-24T22:33:11.641Z,1.40
2024-03-24T22:35:39.104Z,1.50
2024-03-24T22:38:06.862Z,0.80
2024-03-24T22:40:33.578Z,1.10
2024-03-24T22:43:00.666Z,1.10
2024-03-24T22:45:27.430Z,1.40
2024-03-24T22:47:54.666Z,1.00
2024-03-24T22:50:21.587Z,1.10
2024-03-24T22:52:48.399Z,1.70
2024-03-24T22:55:16.355Z,0.90
2024-03-24T22:57:43.150Z,1.70
2024-03-24T23:00:17.821Z,2.90
2024-03-24T23:02:44.610Z,2.50
2024-03-24T23:05:11.610Z,1.50
2024-03-24T23:07:39.817Z,2.40
2024-03-24T23:10:07.238Z,1.70
2024-03-24T23:12:34.240Z,0.80
2024-03-24T23:15:00.968Z,0.60
2024-03-24T23:17:27.995Z,1.40
2024-03-24T23:19:54.920Z,2.00
2024-03-24T23:22:21.881Z,2.50
2024-03-24T23:24:48.852Z,2.20
2024-03-24T23:27:16.058Z,1.60
2024-03-24T23:29:42.966Z,2.70
2024-03-24T23:32:09.759Z,3.00
2024-03-24T23:34:36.829Z,1.90
2024-03-24T23:37:04.592Z,2.10
2024-03-24T23:39:31.415Z,2.20
2024-03-24T23:41:58.407Z,2.10
2024-03-24T23:44:25.405Z,1.30
2024-03-24T23:46:52.525Z,1.80
2024-03-24T23:49:19.565Z,1.70
2024-03-24T23:51:46.571Z,1.60
2024-03-24T23:54:13.367Z,1.40
2024-03-24T23:56:40.171Z,1.70
2024-03-24T23:59:07.916Z,1.80
